This is the latest recevied weather packets stored in our database for station/object NR0Q. If no packets are shown the sender has not sent any weather packets the latest 10 day(s).
| Time | Temp. | Humidity | Pressure | Rain* | Wind** | Luminosity | Snow |
|---|---|---|---|---|---|---|---|
| 1777870801 | 20.56° C | 42% | 1011.5 hPa | 0 mm | - | - | - |
| 1777869901 | 20.56° C | 42% | 1011.5 hPa | 0 mm | - | - | - |
| 1777869001 | 20.56° C | 41% | 1011.5 hPa | 0 mm | - | - | - |
| 1777868101 | 20.56° C | 42% | 1011.5 hPa | 0 mm | - | - | - |
| 1777867201 | 21.11° C | 41% | 1011.5 hPa | 0 mm | - | - | - |
| 1777866301 | 21.11° C | 41% | 1011.5 hPa | 0 mm | - | - | - |
| 1777865401 | 21.11° C | 40% | 1011.5 hPa | 0 mm | - | - | - |
| 1777864501 | 21.11° C | 42% | 1011.5 hPa | 0 mm | - | - | - |
| 1777863602 | 21.11° C | 41% | 1011.5 hPa | 0 mm | - | - | - |
| 1777862701 | 21.11° C | 42% | 1011.5 hPa | 0 mm | - | - | - |
| 1777861801 | 21.67° C | 41% | 1011.5 hPa | 0 mm | - | - | - |
| 1777860901 | 21.67° C | 40% | 1011.5 hPa | 0 mm | - | - | - |
| 1777860001 | 22.22° C | 38% | 1011.5 hPa | 0 mm | - | - | - |
| 1777859101 | 22.78° C | 37% | 1011.5 hPa | 0 mm | - | - | - |
| 1777858201 | 23.33° C | 36% | 1011.5 hPa | 0 mm | - | - | - |
| 1777857301 | 23.89° C | 36% | 1011.5 hPa | 0 mm | - | - | - |
| 1777856401 | 24.44° C | 34% | 1011.5 hPa | 0 mm | - | - | - |
| 1777855502 | 25° C | 33% | 1011.5 hPa | 0 mm | - | - | - |
| 1777854601 | 25.56° C | 32% | 1011.5 hPa | 0 mm | - | - | - |
| 1777853701 | 26.11° C | 29% | 1011.5 hPa | 0 mm | - | - | - |
| 1777852801 | 26.67° C | 29% | 1011.5 hPa | 0 mm | - | - | - |
| 1777851901 | 27.78° C | 27% | 1011.5 hPa | 0 mm | - | - | - |
| 1777850101 | 28.33° C | 23% | 1011.5 hPa | 0 mm | - | - | - |
| 1777849201 | 28.89° C | 22% | 1011.5 hPa | 0 mm | - | - | - |
| 1777848301 | 28.89° C | 22% | 1011.5 hPa | 0 mm | - | - | - |
* Rain latest hour (hover to see other rain measurements)
** Current wind speed in m/s (hover to see current wind gust speed)